sensor_id;sensor_type;location;lat;lon;timestamp;P1;durP1;ratioP1;P2;durP2;ratioP2
7833;SDS011;3962;42.696;23.354;2023-03-13T00:02:25;13.13;;;8.77;;
7833;SDS011;3962;42.696;23.354;2023-03-13T00:04:52;11.00;;;7.40;;
7833;SDS011;3962;42.696;23.354;2023-03-13T00:07:19;11.87;;;8.90;;
7833;SDS011;3962;42.696;23.354;2023-03-13T00:09:47;11.03;;;8.13;;
7833;SDS011;3962;42.696;23.354;2023-03-13T00:12:14;10.87;;;7.80;;
7833;SDS011;3962;42.696;23.354;2023-03-13T00:14:42;12.37;;;8.30;;
7833;SDS011;3962;42.696;23.354;2023-03-13T00:17:08;9.03;;;7.03;;
7833;SDS011;3962;42.696;23.354;2023-03-13T00:19:35;13.57;;;8.87;;
7833;SDS011;3962;42.696;23.354;2023-03-13T00:22:02;12.17;;;8.70;;
7833;SDS011;3962;42.696;23.354;2023-03-13T00:24:29;11.73;;;7.20;;
7833;SDS011;3962;42.696;23.354;2023-03-13T00:26:59;12.63;;;8.30;;
7833;SDS011;3962;42.696;23.354;2023-03-13T00:29:27;9.70;;;7.43;;
7833;SDS011;3962;42.696;23.354;2023-03-13T00:31:54;10.67;;;8.17;;
7833;SDS011;3962;42.696;23.354;2023-03-13T00:34:21;9.13;;;6.53;;
7833;SDS011;3962;42.696;23.354;2023-03-13T00:36:48;12.23;;;8.13;;
7833;SDS011;3962;42.696;23.354;2023-03-13T00:39:14;9.27;;;7.60;;
7833;SDS011;3962;42.696;23.354;2023-03-13T00:41:41;8.93;;;7.27;;
7833;SDS011;3962;42.696;23.354;2023-03-13T00:44:10;12.77;;;7.57;;
7833;SDS011;3962;42.696;23.354;2023-03-13T00:46:37;9.83;;;7.67;;
7833;SDS011;3962;42.696;23.354;2023-03-13T00:49:04;10.10;;;7.97;;
7833;SDS011;3962;42.696;23.354;2023-03-13T00:51:31;11.80;;;7.30;;
7833;SDS011;3962;42.696;23.354;2023-03-13T00:53:58;11.90;;;8.73;;
7833;SDS011;3962;42.696;23.354;2023-03-13T00:56:25;9.90;;;7.17;;
7833;SDS011;3962;42.696;23.354;2023-03-13T00:58:53;11.97;;;7.60;;
7833;SDS011;3962;42.696;23.354;2023-03-13T01:01:22;11.93;;;7.47;;
7833;SDS011;3962;42.696;23.354;2023-03-13T01:03:50;9.67;;;7.57;;
7833;SDS011;3962;42.696;23.354;2023-03-13T01:06:19;12.43;;;8.77;;
7833;SDS011;3962;42.696;23.354;2023-03-13T01:08:48;12.40;;;8.50;;
7833;SDS011;3962;42.696;23.354;2023-03-13T01:11:16;12.53;;;9.17;;
7833;SDS011;3962;42.696;23.354;2023-03-13T01:13:45;13.53;;;8.73;;
7833;SDS011;3962;42.696;23.354;2023-03-13T01:16:13;10.80;;;7.87;;
7833;SDS011;3962;42.696;23.354;2023-03-13T01:18:44;10.13;;;6.90;;
7833;SDS011;3962;42.696;23.354;2023-03-13T01:21:12;10.63;;;7.13;;
7833;SDS011;3962;42.696;23.354;2023-03-13T01:23:41;10.53;;;7.30;;
7833;SDS011;3962;42.696;23.354;2023-03-13T01:26:08;10.40;;;7.07;;
7833;SDS011;3962;42.696;23.354;2023-03-13T01:28:35;8.67;;;7.20;;
7833;SDS011;3962;42.696;23.354;2023-03-13T01:31:09;9.90;;;8.00;;
7833;SDS011;3962;42.696;23.354;2023-03-13T01:33:37;9.97;;;7.90;;
7833;SDS011;3962;42.696;23.354;2023-03-13T01:36:06;10.13;;;7.70;;
7833;SDS011;3962;42.696;23.354;2023-03-13T01:38:34;10.60;;;7.40;;
7833;SDS011;3962;42.696;23.354;2023-03-13T01:41:00;13.80;;;8.03;;
7833;SDS011;3962;42.696;23.354;2023-03-13T01:43:29;12.53;;;7.57;;
7833;SDS011;3962;42.696;23.354;2023-03-13T01:46:01;10.70;;;7.60;;
7833;SDS011;3962;42.696;23.354;2023-03-13T01:48:35;9.63;;;7.23;;
7833;SDS011;3962;42.696;23.354;2023-03-13T01:51:08;11.77;;;7.00;;
7833;SDS011;3962;42.696;23.354;2023-03-13T01:53:39;12.07;;;6.93;;
7833;SDS011;3962;42.696;23.354;2023-03-13T01:56:09;9.10;;;7.23;;
7833;SDS011;3962;42.696;23.354;2023-03-13T01:58:40;10.60;;;7.20;;
7833;SDS011;3962;42.696;23.354;2023-03-13T02:01:07;11.13;;;7.80;;
7833;SDS011;3962;42.696;23.354;2023-03-13T02:03:35;10.03;;;8.37;;
7833;SDS011;3962;42.696;23.354;2023-03-13T02:06:03;11.67;;;8.43;;
7833;SDS011;3962;42.696;23.354;2023-03-13T02:08:35;14.83;;;9.40;;
7833;SDS011;3962;42.696;23.354;2023-03-13T02:11:08;12.17;;;8.47;;
7833;SDS011;3962;42.696;23.354;2023-03-13T02:13:41;11.80;;;9.40;;
7833;SDS011;3962;42.696;23.354;2023-03-13T02:16:09;13.90;;;10.40;;
7833;SDS011;3962;42.696;23.354;2023-03-13T02:18:36;15.20;;;10.30;;
7833;SDS011;3962;42.696;23.354;2023-03-13T02:21:07;13.93;;;9.87;;
7833;SDS011;3962;42.696;23.354;2023-03-13T02:23:40;14.07;;;10.20;;
7833;SDS011;3962;42.696;23.354;2023-03-13T02:26:16;14.87;;;10.23;;
7833;SDS011;3962;42.696;23.354;2023-03-13T02:28:43;14.80;;;10.73;;
7833;SDS011;3962;42.696;23.354;2023-03-13T02:31:10;17.43;;;11.90;;
7833;SDS011;3962;42.696;23.354;2023-03-13T02:33:38;16.23;;;11.90;;
7833;SDS011;3962;42.696;23.354;2023-03-13T02:36:06;17.67;;;10.63;;
7833;SDS011;3962;42.696;23.354;2023-03-13T02:38:36;15.00;;;10.77;;
7833;SDS011;3962;42.696;23.354;2023-03-13T02:41:05;16.37;;;11.30;;
7833;SDS011;3962;42.696;23.354;2023-03-13T02:43:36;18.90;;;12.60;;
7833;SDS011;3962;42.696;23.354;2023-03-13T02:46:04;15.77;;;10.87;;
7833;SDS011;3962;42.696;23.354;2023-03-13T02:48:34;16.90;;;10.97;;
7833;SDS011;3962;42.696;23.354;2023-03-13T02:51:04;17.33;;;11.23;;
7833;SDS011;3962;42.696;23.354;2023-03-13T02:53:35;19.67;;;12.67;;
7833;SDS011;3962;42.696;23.354;2023-03-13T02:56:03;23.50;;;13.87;;
7833;SDS011;3962;42.696;23.354;2023-03-13T02:58:36;20.97;;;13.50;;
7833;SDS011;3962;42.696;23.354;2023-03-13T03:01:04;19.67;;;12.47;;
7833;SDS011;3962;42.696;23.354;2023-03-13T03:03:32;21.63;;;13.97;;
7833;SDS011;3962;42.696;23.354;2023-03-13T03:06:00;23.23;;;12.63;;
7833;SDS011;3962;42.696;23.354;2023-03-13T03:08:27;15.77;;;11.23;;
7833;SDS011;3962;42.696;23.354;2023-03-13T03:10:53;15.33;;;11.60;;
7833;SDS011;3962;42.696;23.354;2023-03-13T03:13:20;19.00;;;11.97;;
7833;SDS011;3962;42.696;23.354;2023-03-13T03:15:48;25.67;;;12.97;;
7833;SDS011;3962;42.696;23.354;2023-03-13T03:18:15;19.33;;;12.40;;
7833;SDS011;3962;42.696;23.354;2023-03-13T03:20:42;19.90;;;11.13;;
7833;SDS011;3962;42.696;23.354;2023-03-13T03:23:09;16.10;;;10.40;;
7833;SDS011;3962;42.696;23.354;2023-03-13T03:25:36;16.23;;;9.47;;
7833;SDS011;3962;42.696;23.354;2023-03-13T03:28:02;14.07;;;9.17;;
7833;SDS011;3962;42.696;23.354;2023-03-13T03:30:29;12.63;;;8.77;;
7833;SDS011;3962;42.696;23.354;2023-03-13T03:32:57;13.10;;;8.67;;
7833;SDS011;3962;42.696;23.354;2023-03-13T03:35:24;15.77;;;8.23;;
7833;SDS011;3962;42.696;23.354;2023-03-13T03:37:51;11.67;;;8.00;;
7833;SDS011;3962;42.696;23.354;2023-03-13T03:40:18;10.67;;;8.17;;
7833;SDS011;3962;42.696;23.354;2023-03-13T03:42:45;13.80;;;8.70;;
7833;SDS011;3962;42.696;23.354;2023-03-13T03:45:12;12.03;;;8.17;;
7833;SDS011;3962;42.696;23.354;2023-03-13T03:47:39;11.67;;;8.40;;
7833;SDS011;3962;42.696;23.354;2023-03-13T03:50:08;11.47;;;8.90;;
7833;SDS011;3962;42.696;23.354;2023-03-13T03:52:36;13.13;;;9.10;;
7833;SDS011;3962;42.696;23.354;2023-03-13T03:55:03;17.00;;;9.63;;
7833;SDS011;3962;42.696;23.354;2023-03-13T03:57:30;12.47;;;8.63;;
7833;SDS011;3962;42.696;23.354;2023-03-13T03:59:57;14.87;;;9.77;;
7833;SDS011;3962;42.696;23.354;2023-03-13T04:02:24;13.37;;;10.30;;
7833;SDS011;3962;42.696;23.354;2023-03-13T04:04:51;16.13;;;10.57;;
7833;SDS011;3962;42.696;23.354;2023-03-13T04:07:19;14.60;;;10.43;;
7833;SDS011;3962;42.696;23.354;2023-03-13T04:09:46;16.17;;;10.87;;
7833;SDS011;3962;42.696;23.354;2023-03-13T04:12:12;16.63;;;10.07;;
7833;SDS011;3962;42.696;23.354;2023-03-13T04:14:41;20.37;;;12.00;;
7833;SDS011;3962;42.696;23.354;2023-03-13T04:17:07;15.03;;;9.80;;
7833;SDS011;3962;42.696;23.354;2023-03-13T04:19:34;14.47;;;9.83;;
7833;SDS011;3962;42.696;23.354;2023-03-13T04:22:01;12.33;;;9.90;;
7833;SDS011;3962;42.696;23.354;2023-03-13T04:24:29;15.83;;;9.97;;
7833;SDS011;3962;42.696;23.354;2023-03-13T04:26:56;14.50;;;10.43;;
7833;SDS011;3962;42.696;23.354;2023-03-13T04:29:23;13.80;;;9.77;;
7833;SDS011;3962;42.696;23.354;2023-03-13T04:31:50;16.57;;;10.40;;
7833;SDS011;3962;42.696;23.354;2023-03-13T04:34:17;17.33;;;11.40;;
7833;SDS011;3962;42.696;23.354;2023-03-13T04:36:43;16.00;;;10.73;;
7833;SDS011;3962;42.696;23.354;2023-03-13T04:39:10;19.43;;;11.10;;
7833;SDS011;3962;42.696;23.354;2023-03-13T04:41:39;16.97;;;11.43;;
7833;SDS011;3962;42.696;23.354;2023-03-13T04:44:05;19.97;;;11.27;;
7833;SDS011;3962;42.696;23.354;2023-03-13T04:46:32;18.83;;;11.80;;
7833;SDS011;3962;42.696;23.354;2023-03-13T04:49:00;20.67;;;11.73;;
7833;SDS011;3962;42.696;23.354;2023-03-13T04:51:27;28.07;;;15.37;;
7833;SDS011;3962;42.696;23.354;2023-03-13T04:53:54;20.33;;;11.53;;
7833;SDS011;3962;42.696;23.354;2023-03-13T04:56:22;14.20;;;9.83;;
7833;SDS011;3962;42.696;23.354;2023-03-13T04:58:51;15.63;;;10.97;;
7833;SDS011;3962;42.696;23.354;2023-03-13T05:01:19;16.20;;;10.43;;
7833;SDS011;3962;42.696;23.354;2023-03-13T05:03:46;25.17;;;11.23;;
7833;SDS011;3962;42.696;23.354;2023-03-13T05:06:13;17.13;;;11.03;;
7833;SDS011;3962;42.696;23.354;2023-03-13T05:08:39;17.30;;;12.27;;
7833;SDS011;3962;42.696;23.354;2023-03-13T05:11:06;22.90;;;12.13;;
7833;SDS011;3962;42.696;23.354;2023-03-13T05:13:33;19.30;;;12.47;;
7833;SDS011;3962;42.696;23.354;2023-03-13T05:16:01;20.37;;;12.63;;
7833;SDS011;3962;42.696;23.354;2023-03-13T05:18:28;16.77;;;12.23;;
7833;SDS011;3962;42.696;23.354;2023-03-13T05:20:55;20.63;;;12.40;;
7833;SDS011;3962;42.696;23.354;2023-03-13T05:23:22;23.33;;;13.87;;
7833;SDS011;3962;42.696;23.354;2023-03-13T05:25:49;23.17;;;14.37;;
7833;SDS011;3962;42.696;23.354;2023-03-13T05:28:16;23.97;;;15.00;;
7833;SDS011;3962;42.696;23.354;2023-03-13T05:30:43;21.47;;;13.83;;
7833;SDS011;3962;42.696;23.354;2023-03-13T05:33:11;26.27;;;14.53;;
7833;SDS011;3962;42.696;23.354;2023-03-13T05:35:38;25.20;;;16.03;;
7833;SDS011;3962;42.696;23.354;2023-03-13T05:38:05;25.67;;;14.43;;
7833;SDS011;3962;42.696;23.354;2023-03-13T05:40:31;20.67;;;14.23;;
7833;SDS011;3962;42.696;23.354;2023-03-13T05:42:58;28.03;;;15.93;;
7833;SDS011;3962;42.696;23.354;2023-03-13T05:45:25;39.53;;;20.63;;
7833;SDS011;3962;42.696;23.354;2023-03-13T05:47:52;24.20;;;14.80;;
7833;SDS011;3962;42.696;23.354;2023-03-13T05:50:20;21.60;;;12.73;;
7833;SDS011;3962;42.696;23.354;2023-03-13T05:52:47;18.67;;;12.40;;
7833;SDS011;3962;42.696;23.354;2023-03-13T05:55:14;20.73;;;12.77;;
7833;SDS011;3962;42.696;23.354;2023-03-13T05:57:43;21.80;;;14.10;;
7833;SDS011;3962;42.696;23.354;2023-03-13T06:00:11;25.67;;;14.90;;
7833;SDS011;3962;42.696;23.354;2023-03-13T06:02:38;27.50;;;15.70;;
7833;SDS011;3962;42.696;23.354;2023-03-13T06:05:05;27.53;;;17.17;;
7833;SDS011;3962;42.696;23.354;2023-03-13T06:07:34;29.93;;;17.63;;
7833;SDS011;3962;42.696;23.354;2023-03-13T06:10:01;29.23;;;16.70;;
7833;SDS011;3962;42.696;23.354;2023-03-13T06:12:28;32.03;;;19.00;;
7833;SDS011;3962;42.696;23.354;2023-03-13T06:14:55;30.93;;;18.33;;
7833;SDS011;3962;42.696;23.354;2023-03-13T06:17:22;25.73;;;15.30;;
7833;SDS011;3962;42.696;23.354;2023-03-13T06:19:49;21.33;;;12.37;;
7833;SDS011;3962;42.696;23.354;2023-03-13T06:22:16;21.73;;;12.50;;
7833;SDS011;3962;42.696;23.354;2023-03-13T06:24:45;19.00;;;11.67;;
7833;SDS011;3962;42.696;23.354;2023-03-13T06:27:13;17.07;;;11.57;;
7833;SDS011;3962;42.696;23.354;2023-03-13T06:29:40;16.97;;;11.60;;
7833;SDS011;3962;42.696;23.354;2023-03-13T06:32:07;16.10;;;11.07;;
7833;SDS011;3962;42.696;23.354;2023-03-13T06:34:34;15.33;;;10.20;;
7833;SDS011;3962;42.696;23.354;2023-03-13T06:37:01;15.57;;;10.80;;
7833;SDS011;3962;42.696;23.354;2023-03-13T06:39:29;23.83;;;12.67;;
7833;SDS011;3962;42.696;23.354;2023-03-13T06:41:57;18.90;;;12.77;;
7833;SDS011;3962;42.696;23.354;2023-03-13T06:44:24;17.00;;;12.00;;
7833;SDS011;3962;42.696;23.354;2023-03-13T06:46:51;21.97;;;12.10;;
7833;SDS011;3962;42.696;23.354;2023-03-13T06:49:18;20.90;;;13.87;;
7833;SDS011;3962;42.696;23.354;2023-03-13T06:51:44;23.43;;;14.00;;
7833;SDS011;3962;42.696;23.354;2023-03-13T06:54:12;22.07;;;14.00;;
7833;SDS011;3962;42.696;23.354;2023-03-13T06:56:39;20.70;;;11.63;;
7833;SDS011;3962;42.696;23.354;2023-03-13T06:59:08;25.30;;;14.27;;
7833;SDS011;3962;42.696;23.354;2023-03-13T07:01:35;35.87;;;16.47;;
7833;SDS011;3962;42.696;23.354;2023-03-13T07:04:02;21.67;;;12.83;;
7833;SDS011;3962;42.696;23.354;2023-03-13T07:06:29;21.50;;;12.03;;
7833;SDS011;3962;42.696;23.354;2023-03-13T07:08:55;17.40;;;12.23;;
7833;SDS011;3962;42.696;23.354;2023-03-13T07:11:22;17.33;;;11.87;;
7833;SDS011;3962;42.696;23.354;2023-03-13T07:13:51;17.57;;;11.40;;
7833;SDS011;3962;42.696;23.354;2023-03-13T07:16:21;18.57;;;11.93;;
7833;SDS011;3962;42.696;23.354;2023-03-13T07:18:49;34.70;;;16.57;;
7833;SDS011;3962;42.696;23.354;2023-03-13T07:21:16;21.00;;;13.23;;
7833;SDS011;3962;42.696;23.354;2023-03-13T07:23:43;25.93;;;13.67;;
7833;SDS011;3962;42.696;23.354;2023-03-13T07:26:11;21.53;;;13.53;;
7833;SDS011;3962;42.696;23.354;2023-03-13T07:28:39;24.70;;;12.43;;
7833;SDS011;3962;42.696;23.354;2023-03-13T07:31:07;21.47;;;12.60;;
7833;SDS011;3962;42.696;23.354;2023-03-13T07:33:38;18.23;;;12.53;;
7833;SDS011;3962;42.696;23.354;2023-03-13T07:36:05;19.33;;;12.63;;
7833;SDS011;3962;42.696;23.354;2023-03-13T07:38:33;17.40;;;11.53;;
7833;SDS011;3962;42.696;23.354;2023-03-13T07:41:00;16.70;;;12.13;;
7833;SDS011;3962;42.696;23.354;2023-03-13T07:43:27;22.43;;;12.80;;
7833;SDS011;3962;42.696;23.354;2023-03-13T07:45:56;24.23;;;13.53;;
7833;SDS011;3962;42.696;23.354;2023-03-13T07:48:25;24.47;;;13.40;;
7833;SDS011;3962;42.696;23.354;2023-03-13T07:50:56;21.77;;;13.77;;
7833;SDS011;3962;42.696;23.354;2023-03-13T07:53:23;23.93;;;14.23;;
7833;SDS011;3962;42.696;23.354;2023-03-13T07:55:51;28.10;;;14.60;;
7833;SDS011;3962;42.696;23.354;2023-03-13T07:58:19;29.73;;;14.23;;
7833;SDS011;3962;42.696;23.354;2023-03-13T08:00:46;23.73;;;13.43;;
7833;SDS011;3962;42.696;23.354;2023-03-13T08:03:13;20.00;;;13.10;;
7833;SDS011;3962;42.696;23.354;2023-03-13T08:05:40;19.70;;;13.37;;
7833;SDS011;3962;42.696;23.354;2023-03-13T08:08:08;20.50;;;13.57;;
7833;SDS011;3962;42.696;23.354;2023-03-13T08:10:35;25.80;;;13.80;;
7833;SDS011;3962;42.696;23.354;2023-03-13T08:13:02;19.73;;;12.50;;
7833;SDS011;3962;42.696;23.354;2023-03-13T08:15:29;20.90;;;12.93;;
7833;SDS011;3962;42.696;23.354;2023-03-13T08:17:56;22.27;;;13.67;;
7833;SDS011;3962;42.696;23.354;2023-03-13T08:20:23;15.97;;;11.13;;
7833;SDS011;3962;42.696;23.354;2023-03-13T08:22:50;19.27;;;11.97;;
7833;SDS011;3962;42.696;23.354;2023-03-13T08:25:18;18.70;;;11.17;;
7833;SDS011;3962;42.696;23.354;2023-03-13T08:27:45;20.90;;;11.97;;
7833;SDS011;3962;42.696;23.354;2023-03-13T08:30:12;19.97;;;11.77;;
7833;SDS011;3962;42.696;23.354;2023-03-13T08:32:39;22.33;;;12.37;;
7833;SDS011;3962;42.696;23.354;2023-03-13T08:35:06;19.67;;;11.43;;
7833;SDS011;3962;42.696;23.354;2023-03-13T08:37:34;17.00;;;11.10;;
7833;SDS011;3962;42.696;23.354;2023-03-13T08:40:01;17.87;;;11.47;;
7833;SDS011;3962;42.696;23.354;2023-03-13T08:42:36;16.63;;;10.97;;
7833;SDS011;3962;42.696;23.354;2023-03-13T08:45:05;19.73;;;11.20;;
7833;SDS011;3962;42.696;23.354;2023-03-13T08:47:32;17.23;;;10.30;;
7833;SDS011;3962;42.696;23.354;2023-03-13T08:49:59;15.87;;;11.10;;
7833;SDS011;3962;42.696;23.354;2023-03-13T08:52:26;19.80;;;11.17;;
7833;SDS011;3962;42.696;23.354;2023-03-13T08:54:53;14.27;;;11.47;;
7833;SDS011;3962;42.696;23.354;2023-03-13T08:57:20;17.33;;;11.23;;
7833;SDS011;3962;42.696;23.354;2023-03-13T08:59:48;16.10;;;10.53;;
7833;SDS011;3962;42.696;23.354;2023-03-13T09:02:15;17.20;;;11.00;;
7833;SDS011;3962;42.696;23.354;2023-03-13T09:04:44;16.83;;;10.67;;
7833;SDS011;3962;42.696;23.354;2023-03-13T09:07:12;18.10;;;11.13;;
7833;SDS011;3962;42.696;23.354;2023-03-13T09:09:40;16.87;;;10.63;;
7833;SDS011;3962;42.696;23.354;2023-03-13T09:12:07;18.30;;;11.20;;
7833;SDS011;3962;42.696;23.354;2023-03-13T09:14:34;18.27;;;11.80;;
7833;SDS011;3962;42.696;23.354;2023-03-13T09:17:02;20.07;;;11.43;;
7833;SDS011;3962;42.696;23.354;2023-03-13T09:19:29;19.77;;;11.20;;
7833;SDS011;3962;42.696;23.354;2023-03-13T09:21:56;16.17;;;11.17;;
7833;SDS011;3962;42.696;23.354;2023-03-13T09:24:23;16.17;;;11.53;;
7833;SDS011;3962;42.696;23.354;2023-03-13T09:26:50;18.97;;;12.33;;
7833;SDS011;3962;42.696;23.354;2023-03-13T09:29:17;18.33;;;11.20;;
7833;SDS011;3962;42.696;23.354;2023-03-13T09:31:44;17.47;;;11.73;;
7833;SDS011;3962;42.696;23.354;2023-03-13T09:34:12;17.30;;;12.20;;
7833;SDS011;3962;42.696;23.354;2023-03-13T09:36:39;18.47;;;11.87;;
7833;SDS011;3962;42.696;23.354;2023-03-13T09:39:06;20.87;;;11.70;;
7833;SDS011;3962;42.696;23.354;2023-03-13T09:41:33;17.17;;;11.43;;
7833;SDS011;3962;42.696;23.354;2023-03-13T09:44:07;15.23;;;11.43;;
7833;SDS011;3962;42.696;23.354;2023-03-13T09:46:41;18.00;;;11.33;;
7833;SDS011;3962;42.696;23.354;2023-03-13T09:49:17;14.83;;;10.57;;
7833;SDS011;3962;42.696;23.354;2023-03-13T09:51:55;18.70;;;10.00;;
7833;SDS011;3962;42.696;23.354;2023-03-13T09:54:32;17.53;;;11.00;;
7833;SDS011;3962;42.696;23.354;2023-03-13T09:57:05;16.30;;;10.93;;
7833;SDS011;3962;42.696;23.354;2023-03-13T09:59:42;14.37;;;10.00;;
7833;SDS011;3962;42.696;23.354;2023-03-13T10:02:20;15.17;;;10.80;;
7833;SDS011;3962;42.696;23.354;2023-03-13T10:04:54;21.27;;;10.83;;
7833;SDS011;3962;42.696;23.354;2023-03-13T10:07:27;17.33;;;10.73;;
7833;SDS011;3962;42.696;23.354;2023-03-13T10:09:54;15.87;;;10.87;;
7833;SDS011;3962;42.696;23.354;2023-03-13T10:12:22;13.53;;;10.43;;
7833;SDS011;3962;42.696;23.354;2023-03-13T10:14:56;15.17;;;11.03;;
7833;SDS011;3962;42.696;23.354;2023-03-13T10:17:33;16.23;;;11.00;;
7833;SDS011;3962;42.696;23.354;2023-03-13T10:20:21;19.77;;;11.73;;
7833;SDS011;3962;42.696;23.354;2023-03-13T10:22:49;15.43;;;10.37;;
7833;SDS011;3962;42.696;23.354;2023-03-13T10:25:26;15.40;;;10.30;;
7833;SDS011;3962;42.696;23.354;2023-03-13T10:27:55;14.00;;;10.80;;
7833;SDS011;3962;42.696;23.354;2023-03-13T10:30:23;15.00;;;10.63;;
7833;SDS011;3962;42.696;23.354;2023-03-13T10:32:53;16.13;;;10.47;;
7833;SDS011;3962;42.696;23.354;2023-03-13T10:35:30;17.37;;;9.87;;
7833;SDS011;3962;42.696;23.354;2023-03-13T10:38:00;13.97;;;10.27;;
7833;SDS011;3962;42.696;23.354;2023-03-13T10:40:30;14.07;;;10.40;;
7833;SDS011;3962;42.696;23.354;2023-03-13T10:43:01;19.00;;;10.20;;
7833;SDS011;3962;42.696;23.354;2023-03-13T10:45:31;14.00;;;10.37;;
7833;SDS011;3962;42.696;23.354;2023-03-13T10:48:01;14.93;;;10.80;;
7833;SDS011;3962;42.696;23.354;2023-03-13T10:50:34;16.60;;;11.13;;
7833;SDS011;3962;42.696;23.354;2023-03-13T10:53:16;14.80;;;10.33;;
7833;SDS011;3962;42.696;23.354;2023-03-13T10:55:48;15.30;;;10.50;;
7833;SDS011;3962;42.696;23.354;2023-03-13T10:58:19;17.90;;;10.27;;
7833;SDS011;3962;42.696;23.354;2023-03-13T11:00:49;14.17;;;10.37;;
7833;SDS011;3962;42.696;23.354;2023-03-13T11:03:16;20.80;;;10.57;;
7833;SDS011;3962;42.696;23.354;2023-03-13T11:05:54;17.27;;;12.23;;
7833;SDS011;3962;42.696;23.354;2023-03-13T11:08:22;19.03;;;11.13;;
7833;SDS011;3962;42.696;23.354;2023-03-13T11:10:55;14.17;;;10.57;;
7833;SDS011;3962;42.696;23.354;2023-03-13T11:13:32;18.07;;;10.97;;
7833;SDS011;3962;42.696;23.354;2023-03-13T11:18:56;19.13;;;10.50;;
7833;SDS011;3962;42.696;23.354;2023-03-13T11:21:46;14.37;;;10.47;;
7833;SDS011;3962;42.696;23.354;2023-03-13T11:24:25;13.63;;;10.50;;
7833;SDS011;3962;42.696;23.354;2023-03-13T11:27:02;16.63;;;10.53;;
7833;SDS011;3962;42.696;23.354;2023-03-13T11:29:42;13.87;;;10.00;;
7833;SDS011;3962;42.696;23.354;2023-03-13T11:32:21;15.77;;;10.47;;
7833;SDS011;3962;42.696;23.354;2023-03-13T11:34:53;13.63;;;9.63;;
7833;SDS011;3962;42.696;23.354;2023-03-13T11:37:25;13.60;;;9.70;;
7833;SDS011;3962;42.696;23.354;2023-03-13T11:39:58;14.97;;;10.30;;
7833;SDS011;3962;42.696;23.354;2023-03-13T11:42:40;11.83;;;9.27;;
7833;SDS011;3962;42.696;23.354;2023-03-13T11:45:27;10.80;;;8.53;;
7833;SDS011;3962;42.696;23.354;2023-03-13T11:48:08;14.20;;;9.23;;
7833;SDS011;3962;42.696;23.354;2023-03-13T11:50:45;14.13;;;9.30;;
7833;SDS011;3962;42.696;23.354;2023-03-13T11:53:30;15.27;;;9.17;;
7833;SDS011;3962;42.696;23.354;2023-03-13T11:56:12;12.73;;;9.10;;
7833;SDS011;3962;42.696;23.354;2023-03-13T11:58:48;12.37;;;8.63;;
7833;SDS011;3962;42.696;23.354;2023-03-13T12:01:26;11.40;;;8.80;;
7833;SDS011;3962;42.696;23.354;2023-03-13T12:03:58;18.43;;;9.37;;
7833;SDS011;3962;42.696;23.354;2023-03-13T12:06:33;15.90;;;9.60;;
7833;SDS011;3962;42.696;23.354;2023-03-13T12:09:08;11.77;;;8.50;;
7833;SDS011;3962;42.696;23.354;2023-03-13T12:11:39;13.20;;;9.60;;
7833;SDS011;3962;42.696;23.354;2023-03-13T12:14:10;16.27;;;9.00;;
7833;SDS011;3962;42.696;23.354;2023-03-13T12:16:42;13.20;;;9.10;;
7833;SDS011;3962;42.696;23.354;2023-03-13T12:19:12;14.60;;;9.57;;
7833;SDS011;3962;42.696;23.354;2023-03-13T12:21:44;13.30;;;9.33;;
7833;SDS011;3962;42.696;23.354;2023-03-13T12:24:20;15.00;;;9.53;;
7833;SDS011;3962;42.696;23.354;2023-03-13T12:26:52;18.53;;;10.90;;
7833;SDS011;3962;42.696;23.354;2023-03-13T12:29:26;13.73;;;9.63;;
7833;SDS011;3962;42.696;23.354;2023-03-13T12:32:03;16.53;;;11.57;;
7833;SDS011;3962;42.696;23.354;2023-03-13T12:34:38;18.13;;;10.53;;
7833;SDS011;3962;42.696;23.354;2023-03-13T12:37:18;15.77;;;10.90;;
7833;SDS011;3962;42.696;23.354;2023-03-13T12:39:52;15.73;;;10.17;;
7833;SDS011;3962;42.696;23.354;2023-03-13T12:42:27;19.60;;;10.37;;
7833;SDS011;3962;42.696;23.354;2023-03-13T12:45:06;15.60;;;11.00;;
7833;SDS011;3962;42.696;23.354;2023-03-13T12:47:38;18.00;;;10.63;;
7833;SDS011;3962;42.696;23.354;2023-03-13T12:50:27;16.60;;;11.07;;
7833;SDS011;3962;42.696;23.354;2023-03-13T12:53:08;16.57;;;12.03;;
7833;SDS011;3962;42.696;23.354;2023-03-13T12:56:03;18.70;;;10.80;;
7833;SDS011;3962;42.696;23.354;2023-03-13T12:58:44;17.17;;;11.37;;
7833;SDS011;3962;42.696;23.354;2023-03-13T13:01:15;15.13;;;10.73;;
7833;SDS011;3962;42.696;23.354;2023-03-13T13:03:52;18.40;;;11.73;;
7833;SDS011;3962;42.696;23.354;2023-03-13T13:06:21;17.53;;;10.83;;
7833;SDS011;3962;42.696;23.354;2023-03-13T13:09:01;18.70;;;11.33;;
7833;SDS011;3962;42.696;23.354;2023-03-13T13:11:47;19.67;;;11.87;;
7833;SDS011;3962;42.696;23.354;2023-03-13T13:17:15;13.30;;;9.57;;
7833;SDS011;3962;42.696;23.354;2023-03-13T13:19:48;17.67;;;11.10;;
7833;SDS011;3962;42.696;23.354;2023-03-13T13:25:27;18.63;;;11.10;;
7833;SDS011;3962;42.696;23.354;2023-03-13T13:28:11;15.97;;;10.90;;
7833;SDS011;3962;42.696;23.354;2023-03-13T13:30:51;17.03;;;11.30;;
7833;SDS011;3962;42.696;23.354;2023-03-13T13:33:35;15.47;;;10.80;;
7833;SDS011;3962;42.696;23.354;2023-03-13T13:38:56;16.00;;;10.30;;
7833;SDS011;3962;42.696;23.354;2023-03-13T13:41:25;17.93;;;10.47;;
7833;SDS011;3962;42.696;23.354;2023-03-13T13:46:55;19.17;;;10.43;;
7833;SDS011;3962;42.696;23.354;2023-03-13T13:58:09;14.00;;;9.63;;
7833;SDS011;3962;42.696;23.354;2023-03-13T14:00:40;18.60;;;11.10;;
7833;SDS011;3962;42.696;23.354;2023-03-13T14:03:15;13.87;;;8.17;;
7833;SDS011;3962;42.696;23.354;2023-03-13T14:05:45;14.57;;;10.03;;
7833;SDS011;3962;42.696;23.354;2023-03-13T14:08:15;14.63;;;10.30;;
7833;SDS011;3962;42.696;23.354;2023-03-13T14:10:50;13.47;;;9.80;;
7833;SDS011;3962;42.696;23.354;2023-03-13T14:13:28;12.87;;;9.20;;
7833;SDS011;3962;42.696;23.354;2023-03-13T14:15:57;13.13;;;8.70;;
7833;SDS011;3962;42.696;23.354;2023-03-13T14:18:45;18.03;;;10.30;;
7833;SDS011;3962;42.696;23.354;2023-03-13T14:21:12;15.07;;;9.97;;
7833;SDS011;3962;42.696;23.354;2023-03-13T14:23:39;14.97;;;10.60;;
7833;SDS011;3962;42.696;23.354;2023-03-13T14:26:09;15.70;;;10.50;;
7833;SDS011;3962;42.696;23.354;2023-03-13T14:28:38;18.33;;;11.23;;
7833;SDS011;3962;42.696;23.354;2023-03-13T14:31:08;16.17;;;10.27;;
7833;SDS011;3962;42.696;23.354;2023-03-13T14:33:36;15.23;;;11.47;;
7833;SDS011;3962;42.696;23.354;2023-03-13T14:36:03;14.73;;;10.00;;
7833;SDS011;3962;42.696;23.354;2023-03-13T14:38:31;12.93;;;9.37;;
7833;SDS011;3962;42.696;23.354;2023-03-13T14:40:58;13.87;;;9.40;;
7833;SDS011;3962;42.696;23.354;2023-03-13T14:43:27;13.90;;;9.20;;
7833;SDS011;3962;42.696;23.354;2023-03-13T14:45:57;15.37;;;10.03;;
7833;SDS011;3962;42.696;23.354;2023-03-13T14:48:28;18.63;;;10.97;;
7833;SDS011;3962;42.696;23.354;2023-03-13T14:51:00;11.97;;;8.13;;
7833;SDS011;3962;42.696;23.354;2023-03-13T14:53:29;14.23;;;9.97;;
7833;SDS011;3962;42.696;23.354;2023-03-13T14:56:09;16.20;;;10.23;;
7833;SDS011;3962;42.696;23.354;2023-03-13T14:58:40;18.00;;;10.47;;
7833;SDS011;3962;42.696;23.354;2023-03-13T15:01:14;17.47;;;10.83;;
7833;SDS011;3962;42.696;23.354;2023-03-13T15:03:52;18.90;;;11.07;;
7833;SDS011;3962;42.696;23.354;2023-03-13T15:06:20;19.97;;;12.13;;
7833;SDS011;3962;42.696;23.354;2023-03-13T15:08:48;19.03;;;10.47;;
7833;SDS011;3962;42.696;23.354;2023-03-13T15:11:37;16.43;;;10.20;;
7833;SDS011;3962;42.696;23.354;2023-03-13T15:17:14;9.57;;;7.20;;
7833;SDS011;3962;42.696;23.354;2023-03-13T15:19:48;19.10;;;11.40;;
7833;SDS011;3962;42.696;23.354;2023-03-13T15:22:17;16.83;;;10.47;;